Strona główna
METAR-TAF:

METAR-TAF

Lotnisko :

Upshur County Regional Airport

Buckhannon, Wirginia Zachodnia, Stany Zjednoczone

Szerokość geograficzna: 39-00N, Długość geograficzna: 080-16W, wysokość: 498 m

Aktualna obserwacja pogody

Raport powstał 13 minut temu, godzina 12:35 UTC
Wiatr 8 kt od południowo-południowy zachód w porywach dochodzący do 14 kt
Temperatura 20°C
Wilgotność 78%
Ciśnienie 1012 hPa
Widzialność: 16.1 km
Przerywane chmury na wysokości 4600 ft
Przerywane chmury na wysokości 6000 ft

METAR: KW22 281235Z AUTO 21008G14KT 10SM BKN046 BKN060 20/16 A2987 RMK AO2

czas: 08:48 (12:48 UTC)


TAF: brakujący

Obserwacja i prognoza pogody dla ponad 4000 lotnisk (raport METAR i TAF).

Dostępne stacje oznaczono żółtymi i czerwonymi punktami na mapie.

Najedź kursorem aby zobaczyć nazwę stacji.

Kliknij aby zobaczyć obserwacje i prognozy pogody.

Aby zmienić mapę: kliknij na zielony przycisk z czarnym krzyżykiem, aby powiększyć; na zielony przycisk z myślnikiem, aby pomniejszyć; na zielone strzałki, aby przejść do map sąsiednich.


METAR-TAF: